createdAt,value
2023-02-27T00:01:01.836Z,96284.41
2023-02-27T00:03:30.631Z,96285.22
2023-02-27T00:05:59.028Z,96285.22
2023-02-27T00:08:27.388Z,96281.41
2023-02-27T00:10:55.746Z,96287.84
2023-02-27T00:13:25.483Z,96287.19
2023-02-27T00:15:56.570Z,96292.59
2023-02-27T00:18:24.977Z,96282.91
2023-02-27T00:20:53.587Z,96279.31
2023-02-27T00:23:22.260Z,96287.34
2023-02-27T00:25:52.432Z,96263.19
2023-02-27T00:28:21.064Z,96281.59
2023-02-27T00:30:50.788Z,96263.53
2023-02-27T00:33:19.157Z,96298.56
2023-02-27T00:35:47.504Z,96302.31
2023-02-27T00:38:15.774Z,96277.81
2023-02-27T00:40:44.164Z,96264.19
2023-02-27T00:43:12.481Z,96305.25
2023-02-27T00:45:40.843Z,96290.66
2023-02-27T00:48:10.683Z,96300.69
2023-02-27T00:50:39.868Z,96298.72
2023-02-27T00:53:08.503Z,96282.91
2023-02-27T00:55:37.309Z,96307.25
2023-02-27T00:58:05.634Z,96302.63
2023-02-27T01:00:34.051Z,96300.69
2023-02-27T01:03:02.413Z,96301.47
2023-02-27T01:05:32.441Z,96300.34
2023-02-27T01:08:00.795Z,96294.59
2023-02-27T01:10:29.169Z,96304.78
2023-02-27T01:12:57.470Z,96136.06
2023-02-27T01:15:25.828Z,96302.97
2023-02-27T01:17:54.181Z,96290.00
2023-02-27T01:20:22.790Z,96265.66
2023-02-27T01:22:52.457Z,96299.50
2023-02-27T01:25:21.205Z,96295.41
2023-02-27T01:27:50.347Z,96300.66
2023-02-27T01:30:19.000Z,96299.00
2023-02-27T01:32:47.316Z,96297.38
2023-02-27T01:35:15.687Z,96293.28
2023-02-27T01:37:44.729Z,96290.78
2023-02-27T01:40:15.653Z,96293.44
2023-02-27T01:42:43.919Z,96297.22
2023-02-27T01:45:42.906Z,96289.78
2023-02-27T01:48:18.433Z,96290.78
2023-02-27T01:50:51.213Z,96298.19
2023-02-27T01:53:20.998Z,96292.41
2023-02-27T01:55:51.718Z,96291.06
2023-02-27T01:58:20.711Z,96295.03
2023-02-27T02:00:49.883Z,96302.91
2023-02-27T02:03:24.261Z,96300.28
2023-02-27T02:05:54.934Z,96306.88
2023-02-27T02:08:26.119Z,96295.72
2023-02-27T02:10:58.071Z,96305.91
2023-02-27T02:13:27.110Z,96307.38
2023-02-27T02:16:06.914Z,96300.66
2023-02-27T02:18:43.839Z,96260.81
2023-02-27T02:21:56.220Z,96303.44
2023-02-27T02:24:52.407Z,96299.47
2023-02-27T02:27:34.287Z,96293.06
2023-02-27T02:30:47.055Z,96313.44
2023-02-27T02:33:52.269Z,96311.69
2023-02-27T02:37:17.856Z,96288.34
2023-02-27T02:39:58.804Z,96306.28
2023-02-27T02:42:31.612Z,96309.22
2023-02-27T02:45:10.939Z,96309.88
2023-02-27T02:47:47.947Z,96303.63
2023-02-27T02:50:26.324Z,96315.09
2023-02-27T02:53:03.037Z,96281.41
2023-02-27T02:55:36.592Z,96296.53
2023-02-27T02:58:08.160Z,96317.75
2023-02-27T03:00:41.839Z,96318.38
2023-02-27T03:03:16.535Z,96301.31
2023-02-27T03:05:51.528Z,96304.91
2023-02-27T03:08:23.538Z,96297.31
2023-02-27T03:10:59.233Z,96216.19
2023-02-27T03:13:32.151Z,96316.22
2023-02-27T03:16:06.015Z,96289.09
2023-02-27T03:18:38.674Z,96303.84
2023-02-27T03:21:11.652Z,96308.44
2023-02-27T03:23:44.543Z,96309.09
2023-02-27T03:26:18.516Z,96313.03
2023-02-27T03:28:53.979Z,96314.84
2023-02-27T03:31:29.131Z,96303.28
2023-02-27T03:34:04.842Z,96315.97
2023-02-27T03:36:43.431Z,96322.06
2023-02-27T03:39:23.752Z,96316.81
2023-02-27T03:41:59.505Z,96317.28
2023-02-27T03:44:33.638Z,96329.13
2023-02-27T03:47:02.174Z,96321.88
2023-02-27T03:49:30.684Z,96332.72
2023-02-27T03:51:59.006Z,96334.03
2023-02-27T03:54:33.811Z,96334.69
2023-02-27T03:57:06.057Z,96325.78
2023-02-27T03:59:35.460Z,96334.53
2023-02-27T04:02:04.641Z,96329.75
2023-02-27T04:04:34.331Z,96337.31
2023-02-27T04:07:25.245Z,96334.19
2023-02-27T04:10:26.008Z,96338.94
2023-02-27T04:13:22.041Z,96337.13
2023-02-27T04:16:20.109Z,96351.72
2023-02-27T04:19:00.285Z,96350.94
2023-02-27T04:21:35.545Z,96340.13
2023-02-27T04:24:14.221Z,96349.47
2023-02-27T04:26:48.748Z,96357.66
2023-02-27T04:29:24.565Z,96350.09
2023-02-27T04:31:58.708Z,96368.22
2023-02-27T04:34:32.770Z,96370.19
2023-02-27T04:37:07.313Z,96347.88
2023-02-27T04:39:41.136Z,96367.56
2023-02-27T04:42:15.529Z,96370.84
2023-02-27T04:44:47.803Z,96366.25
2023-02-27T04:47:20.543Z,96366.25
2023-02-27T04:49:53.337Z,96374.75
2023-02-27T04:52:26.108Z,96380.72
2023-02-27T04:54:58.461Z,96330.09
2023-02-27T04:57:35.620Z,96377.09
2023-02-27T05:00:11.820Z,96376.94
2023-02-27T05:02:43.809Z,96376.56
2023-02-27T05:05:17.780Z,96360.50
2023-02-27T05:07:50.744Z,96378.41
2023-02-27T05:10:26.161Z,96395.50
2023-02-27T05:12:59.850Z,96377.28
2023-02-27T05:15:34.120Z,96395.16
2023-02-27T05:18:05.722Z,96394.78
2023-02-27T05:20:40.930Z,96406.03
2023-02-27T05:23:16.086Z,96397.94
2023-02-27T05:25:51.810Z,96403.69
2023-02-27T05:28:25.813Z,96406.09
2023-02-27T05:31:04.808Z,96395.44
2023-02-27T05:33:37.618Z,96409.13
2023-02-27T05:36:12.735Z,96384.31
2023-02-27T05:38:44.979Z,96419.28
2023-02-27T05:41:16.242Z,96405.75
2023-02-27T05:43:48.298Z,96413.13
2023-02-27T05:46:22.802Z,96411.66
2023-02-27T05:48:56.159Z,96319.97
2023-02-27T05:51:28.581Z,96407.06
2023-02-27T05:54:01.291Z,96376.47
2023-02-27T05:56:34.645Z,96415.91
2023-02-27T05:59:07.505Z,96411.44
2023-02-27T06:01:38.192Z,96377.63
2023-02-27T06:04:06.590Z,96424.16
2023-02-27T06:06:37.267Z,96424.31
2023-02-27T06:09:05.874Z,96376.81
2023-02-27T06:11:34.190Z,96432.38
2023-02-27T06:14:03.471Z,96432.84
2023-02-27T06:16:32.041Z,96436.28
2023-02-27T06:19:04.843Z,96431.16
2023-02-27T06:21:33.373Z,96429.88
2023-02-27T06:24:01.627Z,96435.69
2023-02-27T06:26:30.054Z,96440.94
2023-02-27T06:28:58.457Z,96409.03
2023-02-27T06:31:26.985Z,96422.19
2023-02-27T06:33:55.856Z,96432.56
2023-02-27T06:36:26.357Z,96420.84
2023-02-27T06:38:54.944Z,96427.72
2023-02-27T06:41:23.383Z,96432.97
2023-02-27T06:43:51.774Z,96431.94
2023-02-27T06:46:20.493Z,96430.91
2023-02-27T06:48:48.846Z,96439.09
2023-02-27T06:51:17.125Z,96439.94
2023-02-27T06:53:46.934Z,96434.75
2023-02-27T06:56:15.304Z,96425.38
2023-02-27T06:58:43.690Z,96428.97
2023-02-27T07:01:13.656Z,96437.38
2023-02-27T07:03:42.046Z,96439.66
2023-02-27T07:06:10.594Z,96442.88
2023-02-27T07:08:38.958Z,96440.19
2023-02-27T07:11:28.633Z,96438.56
2023-02-27T07:13:57.031Z,96436.28
2023-02-27T07:16:25.670Z,96437.47
2023-02-27T07:18:54.250Z,96439.06
2023-02-27T07:21:22.956Z,96418.56
2023-02-27T07:23:51.327Z,96435.06
2023-02-27T07:26:20.003Z,96444.88
2023-02-27T07:28:49.744Z,96455.03
2023-02-27T07:31:18.101Z,96437.25
2023-02-27T07:33:46.395Z,96424.59
2023-02-27T07:36:14.811Z,96456.91
2023-02-27T07:38:43.130Z,96452.88
2023-02-27T07:41:21.240Z,96459.09
2023-02-27T07:43:59.430Z,96469.88
2023-02-27T07:46:28.277Z,96471.63
2023-02-27T07:48:56.897Z,96471.97
2023-02-27T07:51:25.193Z,96464.03
2023-02-27T07:53:53.549Z,96468.59
2023-02-27T07:56:21.859Z,96200.47
2023-02-27T07:58:50.171Z,96470.25
2023-02-27T08:01:20.355Z,96471.28
2023-02-27T08:03:49.275Z,96479.34
2023-02-27T08:06:17.583Z,96477.41
2023-02-27T08:08:46.078Z,96474.59
2023-02-27T08:11:14.418Z,96426.88
2023-02-27T08:13:59.560Z,96483.84
2023-02-27T08:16:31.229Z,96410.66
2023-02-27T08:19:00.010Z,96494.16
2023-02-27T08:21:28.723Z,96491.53
2023-02-27T08:23:57.321Z,96489.97
2023-02-27T08:26:26.077Z,96486.66
2023-02-27T08:28:54.590Z,96482.94
2023-02-27T08:31:23.279Z,96481.50
2023-02-27T08:34:01.176Z,96488.41
2023-02-27T08:36:37.629Z,96475.88
2023-02-27T08:39:07.136Z,96495.47
2023-02-27T08:41:35.728Z,96488.19
2023-02-27T08:44:04.318Z,96481.25
2023-02-27T08:46:32.779Z,96490.81
2023-02-27T08:49:02.516Z,96482.00
2023-02-27T08:51:30.895Z,96457.41
2023-02-27T08:54:00.108Z,96493.09
2023-02-27T08:56:29.972Z,96460.09
2023-02-27T08:58:59.044Z,96476.94
2023-02-27T09:01:32.043Z,96492.75
2023-02-27T09:04:03.143Z,96486.03
2023-02-27T09:06:33.150Z,96476.41
2023-02-27T09:09:01.637Z,96477.69
2023-02-27T09:11:30.330Z,96427.09
2023-02-27T09:13:59.030Z,96492.13
2023-02-27T09:16:27.860Z,96486.69
2023-02-27T09:18:56.678Z,96494.59
2023-02-27T09:21:26.596Z,96501.81
2023-02-27T09:23:55.144Z,96501.13
2023-02-27T09:26:39.760Z,96497.56
2023-02-27T09:29:10.506Z,96501.47
2023-02-27T09:31:39.231Z,96493.19
2023-02-27T09:34:07.572Z,96498.66
2023-02-27T09:36:37.311Z,96501.38
2023-02-27T09:39:05.952Z,96506.31
2023-02-27T09:41:48.285Z,96475.94
2023-02-27T09:44:39.760Z,96496.66
2023-02-27T09:47:17.353Z,96502.84
2023-02-27T09:49:50.989Z,96521.13
2023-02-27T09:52:20.960Z,96523.97
2023-02-27T09:54:50.588Z,96528.94
2023-02-27T09:57:26.253Z,96520.72
2023-02-27T10:00:01.222Z,96518.91
2023-02-27T10:02:48.453Z,96521.72
2023-02-27T10:05:27.812Z,96518.56
2023-02-27T10:08:05.583Z,96520.94
2023-02-27T10:10:41.884Z,96497.84
2023-02-27T10:13:35.026Z,96525.91
2023-02-27T10:16:04.671Z,96530.94
2023-02-27T10:18:37.137Z,96526.59
2023-02-27T10:21:11.887Z,96514.88
2023-02-27T10:23:46.945Z,96527.72
2023-02-27T10:26:21.084Z,96511.34
2023-02-27T10:28:49.560Z,96511.97
2023-02-27T10:31:23.867Z,96510.69
2023-02-27T10:33:53.495Z,96527.75
2023-02-27T10:36:33.129Z,96507.88
2023-02-27T10:39:08.057Z,96524.91
2023-02-27T10:41:37.965Z,96524.47
2023-02-27T10:44:07.015Z,96535.47
2023-02-27T10:46:39.051Z,96521.25
2023-02-27T10:49:18.763Z,96499.69
2023-02-27T10:51:48.334Z,96519.25
2023-02-27T10:54:23.767Z,96530.19
2023-02-27T10:56:54.909Z,96519.63
2023-02-27T10:59:27.142Z,96519.78
2023-02-27T11:01:57.200Z,96510.22
2023-02-27T11:04:29.703Z,96515.63
2023-02-27T11:06:59.538Z,96513.72
2023-02-27T11:09:33.407Z,96518.19
2023-02-27T11:12:22.746Z,96518.53
2023-02-27T11:14:53.301Z,96514.97
2023-02-27T11:17:29.987Z,96510.34
2023-02-27T11:19:59.503Z,96516.78
2023-02-27T11:22:29.970Z,96519.28
2023-02-27T11:25:22.542Z,96510.31
2023-02-27T11:27:52.321Z,96515.44
2023-02-27T11:30:28.257Z,96488.81
2023-02-27T11:33:00.282Z,96504.88
2023-02-27T11:35:31.706Z,96510.41
2023-02-27T11:38:03.429Z,96487.25
2023-02-27T11:40:35.779Z,96467.63
2023-02-27T11:43:06.852Z,96501.09
2023-02-27T11:46:08.028Z,96496.22
2023-02-27T11:48:29.916Z,96494.72
2023-02-27T11:51:37.442Z,96494.44
2023-02-27T11:54:16.578Z,96488.06
2023-02-27T11:56:51.844Z,96481.31
2023-02-27T11:59:28.988Z,96481.22
2023-02-27T12:02:04.502Z,96481.22
2023-02-27T12:04:46.065Z,96473.66
2023-02-27T12:07:21.495Z,96484.34
2023-02-27T12:09:58.335Z,96463.69
2023-02-27T12:12:34.740Z,96478.13
2023-02-27T12:15:08.884Z,96492.88
2023-02-27T12:17:42.373Z,96478.44
2023-02-27T12:20:31.528Z,96484.38
2023-02-27T12:23:01.986Z,96476.38
2023-02-27T12:25:42.125Z,96482.66
2023-02-27T12:28:31.901Z,96488.28
2023-02-27T12:31:18.440Z,96490.63
2023-02-27T12:33:51.427Z,96503.63
2023-02-27T12:36:19.896Z,96451.19
2023-02-27T12:38:48.320Z,96489.31
2023-02-27T12:41:38.039Z,96493.97
2023-02-27T12:44:25.021Z,96481.75
2023-02-27T12:47:01.785Z,96479.09
2023-02-27T12:49:43.204Z,96483.84
2023-02-27T12:52:26.168Z,96473.94
2023-02-27T12:55:05.289Z,96479.03
2023-02-27T12:58:01.150Z,96481.41
2023-02-27T13:00:41.700Z,96473.72
2023-02-27T13:03:16.539Z,96467.22
2023-02-27T13:05:53.327Z,96482.22
2023-02-27T13:08:44.491Z,96482.41
2023-02-27T13:11:22.978Z,96466.31
2023-02-27T13:13:56.615Z,96468.44
2023-02-27T13:16:27.775Z,96487.16
2023-02-27T13:19:00.779Z,96482.44
2023-02-27T13:21:35.281Z,96478.56
2023-02-27T13:24:24.189Z,96480.56
2023-02-27T13:26:59.190Z,96466.25
2023-02-27T13:29:34.944Z,96475.63
2023-02-27T13:32:21.442Z,96480.00
2023-02-27T13:34:56.900Z,96473.31
2023-02-27T13:37:24.938Z,96475.25
2023-02-27T13:39:57.287Z,96472.31
2023-02-27T13:43:07.751Z,96478.47
2023-02-27T13:45:54.411Z,96469.97
2023-02-27T13:48:41.775Z,96471.03
2023-02-27T13:51:32.737Z,96485.59
2023-02-27T13:54:20.747Z,96487.38
2023-02-27T13:56:51.673Z,96482.19
2023-02-27T13:59:24.749Z,96449.47
2023-02-27T14:01:55.834Z,96454.31
2023-02-27T14:04:28.906Z,96479.91
2023-02-27T14:07:01.448Z,96501.16
2023-02-27T14:09:37.570Z,96485.38
2023-02-27T14:12:08.110Z,96493.97
2023-02-27T14:14:46.086Z,96501.16
2023-02-27T14:17:15.714Z,96493.53
2023-02-27T14:19:57.235Z,96496.88
2023-02-27T14:23:09.839Z,96485.75
2023-02-27T14:25:43.234Z,96482.72
2023-02-27T14:28:23.227Z,96494.94
2023-02-27T14:30:58.928Z,96472.97
2023-02-27T14:33:40.081Z,96483.31
2023-02-27T14:36:18.424Z,96484.53
2023-02-27T14:38:47.656Z,96481.59
2023-02-27T14:41:41.872Z,96482.56
2023-02-27T14:44:19.301Z,96489.63
2023-02-27T14:46:47.735Z,96472.53
2023-02-27T14:49:22.275Z,96469.78
2023-02-27T14:51:53.266Z,96478.84
2023-02-27T14:54:23.494Z,96479.22
2023-02-27T14:56:56.307Z,96458.19
2023-02-27T14:59:25.959Z,96479.72
2023-02-27T15:01:56.086Z,96489.94
2023-02-27T15:04:27.943Z,96482.28
2023-02-27T15:06:59.554Z,96486.59
2023-02-27T15:09:35.683Z,96483.47
2023-02-27T15:12:05.041Z,96488.66
2023-02-27T15:14:36.364Z,96493.47
2023-02-27T15:17:05.845Z,96497.59
2023-02-27T15:19:34.204Z,96490.56
2023-02-27T15:22:05.706Z,96487.22
2023-02-27T15:24:49.264Z,96495.38
2023-02-27T15:27:21.581Z,96490.44
2023-02-27T15:29:53.251Z,96478.56
2023-02-27T15:32:30.011Z,96457.19
2023-02-27T15:35:01.034Z,96497.44
2023-02-27T15:37:33.731Z,96498.81
2023-02-27T15:40:03.426Z,96505.78
2023-02-27T15:42:35.191Z,96501.91
2023-02-27T15:45:05.288Z,96503.28
2023-02-27T15:47:35.037Z,96506.47
2023-02-27T15:50:12.213Z,96510.50
2023-02-27T15:52:44.208Z,96507.44
2023-02-27T15:55:16.003Z,96509.63
2023-02-27T15:57:56.617Z,96502.63
2023-02-27T16:00:30.612Z,96503.91
2023-02-27T16:03:00.130Z,96505.91
2023-02-27T16:05:36.304Z,96475.72
2023-02-27T16:08:07.580Z,96497.16
2023-02-27T16:10:41.900Z,96512.03
2023-02-27T16:13:31.496Z,96504.47
2023-02-27T16:16:01.732Z,96523.63
2023-02-27T16:18:34.827Z,96522.91
2023-02-27T16:21:12.214Z,96529.31
2023-02-27T16:23:42.994Z,96504.88
2023-02-27T16:26:31.075Z,96527.03
2023-02-27T16:29:02.673Z,96503.22
2023-02-27T16:31:32.923Z,96505.13
2023-02-27T16:34:03.620Z,96499.00
2023-02-27T16:36:33.909Z,96549.38
2023-02-27T16:39:03.878Z,96545.28
2023-02-27T16:41:32.445Z,96535.69
2023-02-27T16:44:00.751Z,96533.25
2023-02-27T16:46:29.445Z,96542.38
2023-02-27T16:49:17.700Z,96544.56
2023-02-27T16:51:48.118Z,96543.47
2023-02-27T16:54:31.722Z,96532.41
2023-02-27T16:57:00.035Z,96532.75
2023-02-27T16:59:34.266Z,96555.56
2023-02-27T17:02:04.479Z,96545.25
2023-02-27T17:04:33.356Z,96550.78
2023-02-27T17:07:06.401Z,96553.06
2023-02-27T17:09:36.466Z,96551.19
2023-02-27T17:12:04.935Z,96534.09
2023-02-27T17:14:33.246Z,96561.56
2023-02-27T17:17:01.986Z,96571.59
2023-02-27T17:19:30.270Z,96503.22
2023-02-27T17:21:58.822Z,96568.59
2023-02-27T17:24:27.492Z,96569.34
2023-02-27T17:26:57.647Z,96541.19
2023-02-27T17:29:26.080Z,96569.78
2023-02-27T17:31:54.429Z,96569.16
2023-02-27T17:34:22.850Z,96575.78
2023-02-27T17:36:53.406Z,96569.59
2023-02-27T17:39:21.828Z,96572.03
2023-02-27T17:41:53.095Z,96576.31
2023-02-27T17:44:22.837Z,96574.50
2023-02-27T17:46:51.200Z,96565.34
2023-02-27T17:49:19.940Z,96592.66
2023-02-27T17:51:48.591Z,96559.81
2023-02-27T17:54:17.122Z,96582.72
2023-02-27T17:56:45.473Z,96577.16
2023-02-27T17:59:13.884Z,96569.47
2023-02-27T18:01:43.687Z,96584.44
2023-02-27T18:04:12.871Z,96588.31
2023-02-27T18:06:41.286Z,96587.38
2023-02-27T18:09:09.582Z,96588.84
2023-02-27T18:11:38.876Z,96596.72
2023-02-27T18:14:07.399Z,96559.75
2023-02-27T18:16:36.481Z,96593.66
2023-02-27T18:19:07.622Z,96594.59
2023-02-27T18:21:36.615Z,96596.28
2023-02-27T18:24:06.146Z,96595.50
2023-02-27T18:26:35.183Z,96608.81
2023-02-27T18:29:06.825Z,96587.03
2023-02-27T18:31:37.831Z,96574.38
2023-02-27T18:34:08.695Z,96586.19
2023-02-27T18:36:38.169Z,96551.28
2023-02-27T18:39:07.983Z,96520.22
2023-02-27T18:41:37.415Z,96446.63
2023-02-27T18:44:07.103Z,96582.72
2023-02-27T18:46:35.921Z,96585.38
2023-02-27T18:49:04.474Z,96558.19
2023-02-27T18:51:34.299Z,96561.72
2023-02-27T18:54:04.584Z,96572.41
2023-02-27T18:56:33.523Z,96552.41
2023-02-27T18:59:05.426Z,96574.63
2023-02-27T19:01:35.948Z,96585.53
2023-02-27T19:04:05.973Z,96588.72
2023-02-27T19:06:41.093Z,96587.38
2023-02-27T19:09:11.173Z,96586.59
2023-02-27T19:11:39.600Z,96588.00
2023-02-27T19:14:10.631Z,96597.41
2023-02-27T19:16:39.043Z,96590.22
2023-02-27T19:19:09.975Z,96592.53
2023-02-27T19:21:39.882Z,96591.06
2023-02-27T19:24:09.398Z,96592.59
2023-02-27T19:26:37.832Z,96596.97
2023-02-27T19:29:07.444Z,96569.09
2023-02-27T19:31:36.384Z,96579.66
2023-02-27T19:34:04.701Z,96547.22
2023-02-27T19:36:35.249Z,96597.66
2023-02-27T19:39:06.945Z,96596.59
2023-02-27T19:41:36.706Z,96510.69
2023-02-27T19:44:06.987Z,96595.66
2023-02-27T19:46:35.948Z,96593.19
2023-02-27T19:49:06.710Z,96477.25
2023-02-27T19:51:36.662Z,96598.59
2023-02-27T19:54:08.015Z,96609.00
2023-02-27T19:56:37.546Z,96604.22
2023-02-27T19:59:06.021Z,96607.88
2023-02-27T20:01:39.354Z,96609.50
2023-02-27T20:04:11.551Z,96608.34
2023-02-27T20:06:43.229Z,96596.00
2023-02-27T20:09:17.372Z,96610.06
2023-02-27T20:11:48.297Z,96614.06
2023-02-27T20:14:19.468Z,96605.88
2023-02-27T20:16:49.327Z,96621.31
2023-02-27T20:19:19.702Z,96614.69
2023-02-27T20:21:48.933Z,96592.84
2023-02-27T20:24:20.098Z,96603.94
2023-02-27T20:26:51.491Z,96620.63
2023-02-27T20:29:23.325Z,96599.25
2023-02-27T20:31:56.018Z,96591.19
2023-02-27T20:34:27.466Z,96624.91
2023-02-27T20:36:58.162Z,96611.88
2023-02-27T20:39:30.852Z,96617.00
2023-02-27T20:42:00.712Z,96620.47
2023-02-27T20:44:30.960Z,96610.72
2023-02-27T20:47:00.533Z,96603.91
2023-02-27T20:49:30.937Z,96520.13
2023-02-27T20:52:00.358Z,96616.72
2023-02-27T20:54:33.034Z,96606.13
2023-02-27T20:57:02.746Z,96571.59
2023-02-27T20:59:32.374Z,96609.41
2023-02-27T21:02:04.308Z,96610.59
2023-02-27T21:04:43.163Z,96612.41
2023-02-27T21:07:15.161Z,96613.22
2023-02-27T21:09:46.804Z,96607.25
2023-02-27T21:12:17.129Z,96598.22
2023-02-27T21:14:47.254Z,96613.03
2023-02-27T21:17:17.411Z,96495.13
2023-02-27T21:19:47.264Z,96583.91
2023-02-27T21:22:17.648Z,96562.88
2023-02-27T21:24:50.477Z,96550.66
2023-02-27T21:27:22.653Z,96574.50
2023-02-27T21:29:51.618Z,96612.88
2023-02-27T21:32:20.029Z,96621.28
2023-02-27T21:34:48.764Z,96596.28
2023-02-27T21:37:17.497Z,96617.16
2023-02-27T21:39:50.567Z,96611.06
2023-02-27T21:42:21.457Z,96613.72
2023-02-27T21:44:50.247Z,96608.44
2023-02-27T21:47:19.342Z,96614.69
2023-02-27T21:49:48.233Z,96617.16
2023-02-27T21:52:16.563Z,96611.06
2023-02-27T21:54:44.981Z,96619.28
2023-02-27T21:57:13.361Z,96594.31
2023-02-27T21:59:44.438Z,96594.47
2023-02-27T22:02:14.812Z,96582.63
2023-02-27T22:04:43.653Z,96606.13
2023-02-27T22:07:11.947Z,96606.13
2023-02-27T22:09:40.285Z,96605.66
2023-02-27T22:12:09.252Z,96606.47
2023-02-27T22:14:37.861Z,96608.28
2023-02-27T22:17:07.769Z,96606.47
2023-02-27T22:19:36.076Z,96608.09
2023-02-27T22:22:04.422Z,96608.78
2023-02-27T22:24:32.927Z,96611.78
2023-02-27T22:27:01.411Z,96606.47
2023-02-27T22:29:29.720Z,96598.59
2023-02-27T22:31:58.654Z,96620.50
2023-02-27T22:34:28.495Z,96617.06
2023-02-27T22:36:57.036Z,96609.75
2023-02-27T22:39:25.988Z,96607.28
2023-02-27T22:41:56.764Z,96617.41
2023-02-27T22:44:25.291Z,96579.22
2023-02-27T22:46:54.763Z,96611.34
2023-02-27T22:49:24.767Z,96613.16
2023-02-27T22:51:54.742Z,96609.97
2023-02-27T22:54:24.149Z,96611.84
2023-02-27T22:56:56.304Z,96611.84
2023-02-27T22:59:26.795Z,96601.03
2023-02-27T23:01:55.298Z,96607.41
2023-02-27T23:04:23.626Z,96602.66
2023-02-27T23:06:55.417Z,96585.88
2023-02-27T23:09:27.357Z,96619.97
2023-02-27T23:11:56.635Z,96620.06
2023-02-27T23:14:24.900Z,96601.97
2023-02-27T23:16:53.235Z,96613.16
2023-02-27T23:19:23.341Z,96607.09
2023-02-27T23:21:51.680Z,96620.56
2023-02-27T23:24:21.666Z,96622.91
2023-02-27T23:26:52.295Z,96599.56
2023-02-27T23:29:21.265Z,96605.38
2023-02-27T23:31:49.681Z,96612.41
2023-02-27T23:34:18.434Z,96616.22
2023-02-27T23:36:47.078Z,96626.53
2023-02-27T23:39:15.402Z,96628.34
2023-02-27T23:41:45.169Z,96630.09
2023-02-27T23:44:13.466Z,96628.06
2023-02-27T23:46:41.776Z,96628.88
2023-02-27T23:49:10.236Z,96624.44
2023-02-27T23:51:38.737Z,96633.69
2023-02-27T23:54:07.145Z,96631.34
2023-02-27T23:56:35.891Z,96628.34
2023-02-27T23:59:07.286Z,96619.66
